Terminal Aerodrome Forecast
Issued by NWS

Home | Current Version | Previous Version | Text Only | Print | Product List | Glossary On
Versions: 1 2 3 4 5 6 7 8 9 10 11 12 13 14 15
000
FTUS46 KPDT 282320
TAFDLS
TAF
KDLS 282320Z 2900/2924 31018G28KT P6SM SCT100
     FM290500 30012KT P6SM FEW050 BKN250
     FM291200 30012G20KT P6SM SCT070 BKN200
     FM291800 31018G26KT P6SM VCSH BKN040 OVC060=

USA.gov is the U.S. government's official web portal to all federal, state and local government web resources and services.